sensor_id;sensor_type;location;lat;lon;timestamp;temperature;humidity
66670;DHT22;53568;52.164;4.472;2023-05-18T00:02:13;9.85;66.08
66670;DHT22;53568;52.164;4.472;2023-05-18T00:04:40;9.99;65.93
66670;DHT22;53568;52.164;4.472;2023-05-18T00:07:07;10.01;65.75
66670;DHT22;53568;52.164;4.472;2023-05-18T00:09:34;10.09;65.44
66670;DHT22;53568;52.164;4.472;2023-05-18T00:12:02;10.18;65.41
66670;DHT22;53568;52.164;4.472;2023-05-18T00:14:28;10.12;65.50
66670;DHT22;53568;52.164;4.472;2023-05-18T00:16:53;10.14;65.65
66670;DHT22;53568;52.164;4.472;2023-05-18T00:19:20;10.14;65.89
66670;DHT22;53568;52.164;4.472;2023-05-18T00:21:46;10.08;66.11
66670;DHT22;53568;52.164;4.472;2023-05-18T00:24:13;10.11;66.16
66670;DHT22;53568;52.164;4.472;2023-05-18T00:26:42;10.01;66.57
66670;DHT22;53568;52.164;4.472;2023-05-18T00:29:08;10.05;66.44
66670;DHT22;53568;52.164;4.472;2023-05-18T00:31:35;10.11;65.98
66670;DHT22;53568;52.164;4.472;2023-05-18T00:34:04;9.97;66.54
66670;DHT22;53568;52.164;4.472;2023-05-18T00:36:31;10.05;66.42
66670;DHT22;53568;52.164;4.472;2023-05-18T00:38:57;10.14;66.25
66670;DHT22;53568;52.164;4.472;2023-05-18T00:41:24;10.24;66.08
66670;DHT22;53568;52.164;4.472;2023-05-18T00:43:51;10.29;65.93
66670;DHT22;53568;52.164;4.472;2023-05-18T00:46:17;10.25;66.07
66670;DHT22;53568;52.164;4.472;2023-05-18T00:48:43;10.25;66.42
66670;DHT22;53568;52.164;4.472;2023-05-18T00:51:09;10.16;66.52
66670;DHT22;53568;52.164;4.472;2023-05-18T00:53:35;10.19;66.67
66670;DHT22;53568;52.164;4.472;2023-05-18T00:56:02;10.36;66.25
66670;DHT22;53568;52.164;4.472;2023-05-18T00:58:28;10.38;66.40
66670;DHT22;53568;52.164;4.472;2023-05-18T01:00:54;10.44;66.30
66670;DHT22;53568;52.164;4.472;2023-05-18T01:03:19;10.55;66.00
66670;DHT22;53568;52.164;4.472;2023-05-18T01:05:46;10.60;65.91
66670;DHT22;53568;52.164;4.472;2023-05-18T01:08:21;10.69;65.63
66670;DHT22;53568;52.164;4.472;2023-05-18T01:10:55;10.73;65.57
66670;DHT22;53568;52.164;4.472;2023-05-18T01:13:46;10.79;65.11
66670;DHT22;53568;52.164;4.472;2023-05-18T01:16:25;10.79;64.99
66670;DHT22;53568;52.164;4.472;2023-05-18T01:19:02;10.79;64.44
66670;DHT22;53568;52.164;4.472;2023-05-18T01:21:56;10.86;63.59
66670;DHT22;53568;52.164;4.472;2023-05-18T01:24:41;10.86;63.09
66670;DHT22;53568;52.164;4.472;2023-05-18T01:27:08;10.76;63.28
66670;DHT22;53568;52.164;4.472;2023-05-18T01:29:34;10.70;63.66
66670;DHT22;53568;52.164;4.472;2023-05-18T01:32:00;10.69;63.85
66670;DHT22;53568;52.164;4.472;2023-05-18T01:34:26;10.70;64.02
66670;DHT22;53568;52.164;4.472;2023-05-18T01:36:52;10.73;63.75
66670;DHT22;53568;52.164;4.472;2023-05-18T01:39:18;10.70;63.53
66670;DHT22;53568;52.164;4.472;2023-05-18T01:42:14;10.66;63.42
66670;DHT22;53568;52.164;4.472;2023-05-18T01:44:57;10.68;63.38
66670;DHT22;53568;52.164;4.472;2023-05-18T01:47:24;10.66;63.54
66670;DHT22;53568;52.164;4.472;2023-05-18T01:52:32;10.63;63.41
66670;DHT22;53568;52.164;4.472;2023-05-18T01:55:02;10.66;63.21
66670;DHT22;53568;52.164;4.472;2023-05-18T01:57:30;10.62;63.54
66670;DHT22;53568;52.164;4.472;2023-05-18T02:00:01;10.68;63.62
66670;DHT22;53568;52.164;4.472;2023-05-18T02:02:28;10.72;63.59
66670;DHT22;53568;52.164;4.472;2023-05-18T02:04:54;10.86;63.35
66670;DHT22;53568;52.164;4.472;2023-05-18T02:07:19;10.84;63.46
66670;DHT22;53568;52.164;4.472;2023-05-18T02:09:45;10.89;63.69
66670;DHT22;53568;52.164;4.472;2023-05-18T02:12:10;10.86;63.63
66670;DHT22;53568;52.164;4.472;2023-05-18T02:14:36;10.83;63.77
66670;DHT22;53568;52.164;4.472;2023-05-18T02:17:02;10.77;63.88
66670;DHT22;53568;52.164;4.472;2023-05-18T02:19:28;10.83;63.70
66670;DHT22;53568;52.164;4.472;2023-05-18T02:21:55;10.80;63.48
66670;DHT22;53568;52.164;4.472;2023-05-18T02:24:22;10.80;63.24
66670;DHT22;53568;52.164;4.472;2023-05-18T02:26:51;10.77;63.43
66670;DHT22;53568;52.164;4.472;2023-05-18T02:29:17;10.76;63.09
66670;DHT22;53568;52.164;4.472;2023-05-18T02:31:42;10.76;63.09
66670;DHT22;53568;52.164;4.472;2023-05-18T02:34:08;10.73;62.87
66670;DHT22;53568;52.164;4.472;2023-05-18T02:36:34;10.68;63.25
66670;DHT22;53568;52.164;4.472;2023-05-18T02:39:10;10.68;62.89
66670;DHT22;53568;52.164;4.472;2023-05-18T02:41:36;10.62;62.44
66670;DHT22;53568;52.164;4.472;2023-05-18T02:44:04;10.58;62.45
66670;DHT22;53568;52.164;4.472;2023-05-18T02:46:31;10.45;62.55
66670;DHT22;53568;52.164;4.472;2023-05-18T02:48:58;10.38;62.77
66670;DHT22;53568;52.164;4.472;2023-05-18T02:51:24;10.29;62.89
66670;DHT22;53568;52.164;4.472;2023-05-18T02:53:51;10.26;63.07
66670;DHT22;53568;52.164;4.472;2023-05-18T02:56:17;10.26;62.45
66670;DHT22;53568;52.164;4.472;2023-05-18T02:58:43;10.21;62.75
66670;DHT22;53568;52.164;4.472;2023-05-18T03:01:09;10.18;62.33
66670;DHT22;53568;52.164;4.472;2023-05-18T03:03:41;10.14;62.04
66670;DHT22;53568;52.164;4.472;2023-05-18T03:06:07;10.08;61.85
66670;DHT22;53568;52.164;4.472;2023-05-18T03:08:34;10.02;62.11
66670;DHT22;53568;52.164;4.472;2023-05-18T03:11:01;10.05;61.99
66670;DHT22;53568;52.164;4.472;2023-05-18T03:13:27;10.05;61.90
66670;DHT22;53568;52.164;4.472;2023-05-18T03:15:52;9.98;62.17
66670;DHT22;53568;52.164;4.472;2023-05-18T03:18:20;9.99;62.25
66670;DHT22;53568;52.164;4.472;2023-05-18T03:20:46;10.02;62.33
66670;DHT22;53568;52.164;4.472;2023-05-18T03:23:14;10.08;62.15
66670;DHT22;53568;52.164;4.472;2023-05-18T03:25:40;10.04;62.30
66670;DHT22;53568;52.164;4.472;2023-05-18T03:28:05;10.05;62.39
66670;DHT22;53568;52.164;4.472;2023-05-18T03:30:34;10.05;62.06
66670;DHT22;53568;52.164;4.472;2023-05-18T03:33:01;10.02;62.14
66670;DHT22;53568;52.164;4.472;2023-05-18T03:35:26;9.95;62.18
66670;DHT22;53568;52.164;4.472;2023-05-18T03:37:52;9.84;62.16
66670;DHT22;53568;52.164;4.472;2023-05-18T03:40:18;9.78;62.66
66670;DHT22;53568;52.164;4.472;2023-05-18T03:42:44;9.80;62.65
66670;DHT22;53568;52.164;4.472;2023-05-18T03:45:10;9.78;62.84
66670;DHT22;53568;52.164;4.472;2023-05-18T03:47:37;9.80;62.80
66670;DHT22;53568;52.164;4.472;2023-05-18T03:50:04;9.78;63.11
66670;DHT22;53568;52.164;4.472;2023-05-18T03:52:34;9.77;63.40
66670;DHT22;53568;52.164;4.472;2023-05-18T03:55:00;9.78;63.40
66670;DHT22;53568;52.164;4.472;2023-05-18T03:57:27;9.77;63.60
66670;DHT22;53568;52.164;4.472;2023-05-18T03:59:53;9.74;63.91
66670;DHT22;53568;52.164;4.472;2023-05-18T04:02:19;9.75;63.83
66670;DHT22;53568;52.164;4.472;2023-05-18T04:04:44;9.80;63.94
66670;DHT22;53568;52.164;4.472;2023-05-18T04:07:14;9.87;63.97
66670;DHT22;53568;52.164;4.472;2023-05-18T04:09:46;9.91;63.80
66670;DHT22;53568;52.164;4.472;2023-05-18T04:12:12;9.99;63.60
66670;DHT22;53568;52.164;4.472;2023-05-18T04:14:38;10.05;63.72
66670;DHT22;53568;52.164;4.472;2023-05-18T04:17:06;10.09;63.55
66670;DHT22;53568;52.164;4.472;2023-05-18T04:19:37;10.06;63.89
66670;DHT22;53568;52.164;4.472;2023-05-18T04:22:05;10.06;64.32
66670;DHT22;53568;52.164;4.472;2023-05-18T04:24:31;10.15;64.52
66670;DHT22;53568;52.164;4.472;2023-05-18T04:27:00;10.21;64.50
66670;DHT22;53568;52.164;4.472;2023-05-18T04:29:26;10.31;64.50
66670;DHT22;53568;52.164;4.472;2023-05-18T04:31:55;10.31;64.78
66670;DHT22;53568;52.164;4.472;2023-05-18T04:34:27;10.15;65.26
66670;DHT22;53568;52.164;4.472;2023-05-18T04:36:53;10.21;65.46
66670;DHT22;53568;52.164;4.472;2023-05-18T04:39:20;10.32;64.68
66670;DHT22;53568;52.164;4.472;2023-05-18T04:41:51;10.35;64.63
66670;DHT22;53568;52.164;4.472;2023-05-18T04:44:29;10.42;64.90
66670;DHT22;53568;52.164;4.472;2023-05-18T04:46:56;10.42;64.79
66670;DHT22;53568;52.164;4.472;2023-05-18T04:49:22;10.58;64.11
66670;DHT22;53568;52.164;4.472;2023-05-18T04:51:52;10.63;63.24
66670;DHT22;53568;52.164;4.472;2023-05-18T04:54:28;10.75;62.89
66670;DHT22;53568;52.164;4.472;2023-05-18T04:56:56;10.83;61.99
66670;DHT22;53568;52.164;4.472;2023-05-18T04:59:22;10.82;61.89
66670;DHT22;53568;52.164;4.472;2023-05-18T05:01:53;10.77;62.25
66670;DHT22;53568;52.164;4.472;2023-05-18T05:04:22;10.79;61.70
66670;DHT22;53568;52.164;4.472;2023-05-18T05:06:48;10.80;61.42
66670;DHT22;53568;52.164;4.472;2023-05-18T05:09:13;10.77;61.36
66670;DHT22;53568;52.164;4.472;2023-05-18T05:11:40;10.82;61.36
66670;DHT22;53568;52.164;4.472;2023-05-18T05:14:06;10.86;61.11
66670;DHT22;53568;52.164;4.472;2023-05-18T05:16:31;10.86;60.97
66670;DHT22;53568;52.164;4.472;2023-05-18T05:18:57;10.86;61.02
66670;DHT22;53568;52.164;4.472;2023-05-18T05:21:22;10.75;61.45
66670;DHT22;53568;52.164;4.472;2023-05-18T05:23:48;10.80;61.16
66670;DHT22;53568;52.164;4.472;2023-05-18T05:26:13;10.77;60.56
66670;DHT22;53568;52.164;4.472;2023-05-18T05:28:39;10.75;61.29
66670;DHT22;53568;52.164;4.472;2023-05-18T05:31:05;10.72;61.11
66670;DHT22;53568;52.164;4.472;2023-05-18T05:33:30;10.83;61.00
66670;DHT22;53568;52.164;4.472;2023-05-18T05:35:56;10.86;61.20
66670;DHT22;53568;52.164;4.472;2023-05-18T05:38:21;10.82;61.32
66670;DHT22;53568;52.164;4.472;2023-05-18T05:40:47;10.76;61.68
66670;DHT22;53568;52.164;4.472;2023-05-18T05:43:12;10.80;61.10
66670;DHT22;53568;52.164;4.472;2023-05-18T05:45:38;10.72;61.97
66670;DHT22;53568;52.164;4.472;2023-05-18T05:48:03;10.76;61.86
66670;DHT22;53568;52.164;4.472;2023-05-18T05:50:32;10.80;61.50
66670;DHT22;53568;52.164;4.472;2023-05-18T05:52:58;10.79;61.32
66670;DHT22;53568;52.164;4.472;2023-05-18T05:55:24;10.84;62.03
66670;DHT22;53568;52.164;4.472;2023-05-18T05:57:51;10.84;61.85
66670;DHT22;53568;52.164;4.472;2023-05-18T06:00:17;10.90;62.11
66670;DHT22;53568;52.164;4.472;2023-05-18T06:02:42;10.86;61.23
66670;DHT22;53568;52.164;4.472;2023-05-18T06:05:08;10.93;60.65
66670;DHT22;53568;52.164;4.472;2023-05-18T06:07:34;11.00;60.87
66670;DHT22;53568;52.164;4.472;2023-05-18T06:10:00;11.03;61.27
66670;DHT22;53568;52.164;4.472;2023-05-18T06:12:26;11.12;60.26
66670;DHT22;53568;52.164;4.472;2023-05-18T06:14:53;11.19;59.95
66670;DHT22;53568;52.164;4.472;2023-05-18T06:17:23;11.22;59.95
66670;DHT22;53568;52.164;4.472;2023-05-18T06:19:48;11.41;58.81
66670;DHT22;53568;52.164;4.472;2023-05-18T06:22:14;11.24;58.38
66670;DHT22;53568;52.164;4.472;2023-05-18T06:24:39;11.24;59.02
66670;DHT22;53568;52.164;4.472;2023-05-18T06:27:05;11.23;59.30
66670;DHT22;53568;52.164;4.472;2023-05-18T06:29:30;11.10;59.23
66670;DHT22;53568;52.164;4.472;2023-05-18T06:31:56;11.06;58.99
66670;DHT22;53568;52.164;4.472;2023-05-18T06:34:21;11.27;58.05
66670;DHT22;53568;52.164;4.472;2023-05-18T06:36:47;11.31;57.37
66670;DHT22;53568;52.164;4.472;2023-05-18T06:39:13;11.40;57.72
66670;DHT22;53568;52.164;4.472;2023-05-18T06:41:38;11.38;58.04
66670;DHT22;53568;52.164;4.472;2023-05-18T06:44:04;11.30;58.72
66670;DHT22;53568;52.164;4.472;2023-05-18T06:46:29;11.40;57.53
66670;DHT22;53568;52.164;4.472;2023-05-18T06:48:55;11.50;57.46
66670;DHT22;53568;52.164;4.472;2023-05-18T06:51:21;11.58;57.11
66670;DHT22;53568;52.164;4.472;2023-05-18T06:53:46;11.56;56.12
66670;DHT22;53568;52.164;4.472;2023-05-18T06:56:12;11.26;57.36
66670;DHT22;53568;52.164;4.472;2023-05-18T06:58:38;11.00;58.56
66670;DHT22;53568;52.164;4.472;2023-05-18T07:01:04;11.03;58.64
66670;DHT22;53568;52.164;4.472;2023-05-18T07:03:29;11.20;58.16
66670;DHT22;53568;52.164;4.472;2023-05-18T07:05:57;11.40;58.32
66670;DHT22;53568;52.164;4.472;2023-05-18T07:08:22;11.48;57.77
66670;DHT22;53568;52.164;4.472;2023-05-18T07:10:49;11.41;58.47
66670;DHT22;53568;52.164;4.472;2023-05-18T07:13:15;11.36;58.05
66670;DHT22;53568;52.164;4.472;2023-05-18T07:15:41;11.40;58.43
66670;DHT22;53568;52.164;4.472;2023-05-18T07:18:06;11.50;58.07
66670;DHT22;53568;52.164;4.472;2023-05-18T07:20:32;11.61;56.93
66670;DHT22;53568;52.164;4.472;2023-05-18T07:22:57;11.67;57.17
66670;DHT22;53568;52.164;4.472;2023-05-18T07:25:23;11.66;56.82
66670;DHT22;53568;52.164;4.472;2023-05-18T07:27:49;11.44;56.68
66670;DHT22;53568;52.164;4.472;2023-05-18T07:30:16;11.51;56.48
66670;DHT22;53568;52.164;4.472;2023-05-18T07:32:42;11.68;56.13
66670;DHT22;53568;52.164;4.472;2023-05-18T07:35:09;11.77;55.46
66670;DHT22;53568;52.164;4.472;2023-05-18T07:37:35;11.75;55.98
66670;DHT22;53568;52.164;4.472;2023-05-18T07:40:01;11.87;55.77
66670;DHT22;53568;52.164;4.472;2023-05-18T07:42:28;11.85;56.10
66670;DHT22;53568;52.164;4.472;2023-05-18T07:44:54;11.95;55.32
66670;DHT22;53568;52.164;4.472;2023-05-18T07:47:19;12.01;54.57
66670;DHT22;53568;52.164;4.472;2023-05-18T07:49:46;11.75;54.48
66670;DHT22;53568;52.164;4.472;2023-05-18T07:52:12;11.50;55.60
66670;DHT22;53568;52.164;4.472;2023-05-18T07:54:38;11.41;56.73
66670;DHT22;53568;52.164;4.472;2023-05-18T07:57:03;11.57;57.04
66670;DHT22;53568;52.164;4.472;2023-05-18T07:59:29;11.82;56.11
66670;DHT22;53568;52.164;4.472;2023-05-18T08:01:55;11.81;55.87
66670;DHT22;53568;52.164;4.472;2023-05-18T08:04:21;11.88;55.83
66670;DHT22;53568;52.164;4.472;2023-05-18T08:06:47;11.98;55.06
66670;DHT22;53568;52.164;4.472;2023-05-18T08:09:12;11.91;53.84
66670;DHT22;53568;52.164;4.472;2023-05-18T08:11:38;11.48;54.33
66670;DHT22;53568;52.164;4.472;2023-05-18T08:14:04;11.13;56.17
66670;DHT22;53568;52.164;4.472;2023-05-18T08:16:30;11.02;57.27
66670;DHT22;53568;52.164;4.472;2023-05-18T08:19:02;11.09;56.32
66670;DHT22;53568;52.164;4.472;2023-05-18T08:21:27;11.19;57.60
66670;DHT22;53568;52.164;4.472;2023-05-18T08:23:54;11.30;56.85
66670;DHT22;53568;52.164;4.472;2023-05-18T08:26:20;11.28;57.22
66670;DHT22;53568;52.164;4.472;2023-05-18T08:28:46;11.70;57.31
66670;DHT22;53568;52.164;4.472;2023-05-18T08:31:13;12.05;55.52
66670;DHT22;53568;52.164;4.472;2023-05-18T08:33:39;12.26;54.44
66670;DHT22;53568;52.164;4.472;2023-05-18T08:36:05;12.35;54.07
66670;DHT22;53568;52.164;4.472;2023-05-18T08:38:30;12.29;54.38
66670;DHT22;53568;52.164;4.472;2023-05-18T08:41:25;12.42;52.80
66670;DHT22;53568;52.164;4.472;2023-05-18T08:44:02;12.46;52.91
66670;DHT22;53568;52.164;4.472;2023-05-18T08:46:34;12.45;52.98
66670;DHT22;53568;52.164;4.472;2023-05-18T08:49:01;12.56;52.84
66670;DHT22;53568;52.164;4.472;2023-05-18T08:51:31;12.21;53.66
66670;DHT22;53568;52.164;4.472;2023-05-18T08:53:59;11.91;54.85
66670;DHT22;53568;52.164;4.472;2023-05-18T08:56:24;11.94;54.36
66670;DHT22;53568;52.164;4.472;2023-05-18T08:58:57;11.71;55.19
66670;DHT22;53568;52.164;4.472;2023-05-18T09:01:26;11.81;55.30
66670;DHT22;53568;52.164;4.472;2023-05-18T09:03:56;11.94;56.12
66670;DHT22;53568;52.164;4.472;2023-05-18T09:06:23;12.17;55.36
66670;DHT22;53568;52.164;4.472;2023-05-18T09:08:52;11.99;55.62
66670;DHT22;53568;52.164;4.472;2023-05-18T09:11:18;12.15;55.65
66670;DHT22;53568;52.164;4.472;2023-05-18T09:13:44;12.08;55.69
66670;DHT22;53568;52.164;4.472;2023-05-18T09:16:10;11.68;55.61
66670;DHT22;53568;52.164;4.472;2023-05-18T09:18:36;11.73;55.82
66670;DHT22;53568;52.164;4.472;2023-05-18T09:21:01;11.60;56.78
66670;DHT22;53568;52.164;4.472;2023-05-18T09:23:27;11.94;55.41
66670;DHT22;53568;52.164;4.472;2023-05-18T09:25:53;12.02;55.18
66670;DHT22;53568;52.164;4.472;2023-05-18T09:28:35;12.15;55.09
66670;DHT22;53568;52.164;4.472;2023-05-18T09:31:06;12.29;54.39
66670;DHT22;53568;52.164;4.472;2023-05-18T09:33:35;12.05;55.17
66670;DHT22;53568;52.164;4.472;2023-05-18T09:36:04;12.04;55.11
66670;DHT22;53568;52.164;4.472;2023-05-18T09:38:30;12.12;55.12
66670;DHT22;53568;52.164;4.472;2023-05-18T09:40:55;12.39;54.44
66670;DHT22;53568;52.164;4.472;2023-05-18T09:43:21;12.45;54.20
66670;DHT22;53568;52.164;4.472;2023-05-18T09:45:48;12.33;53.90
66670;DHT22;53568;52.164;4.472;2023-05-18T09:48:15;12.55;53.16
66670;DHT22;53568;52.164;4.472;2023-05-18T09:50:44;12.62;53.13
66670;DHT22;53568;52.164;4.472;2023-05-18T09:53:12;12.46;53.55
66670;DHT22;53568;52.164;4.472;2023-05-18T09:55:48;12.66;52.92
66670;DHT22;53568;52.164;4.472;2023-05-18T09:58:15;12.90;52.79
66670;DHT22;53568;52.164;4.472;2023-05-18T10:00:43;12.97;52.36
66670;DHT22;53568;52.164;4.472;2023-05-18T10:03:20;12.95;52.78
66670;DHT22;53568;52.164;4.472;2023-05-18T10:05:46;13.00;53.24
66670;DHT22;53568;52.164;4.472;2023-05-18T10:08:13;12.89;53.57
66670;DHT22;53568;52.164;4.472;2023-05-18T10:10:44;13.14;53.43
66670;DHT22;53568;52.164;4.472;2023-05-18T10:13:17;13.20;52.51
66670;DHT22;53568;52.164;4.472;2023-05-18T10:15:53;13.23;52.04
66670;DHT22;53568;52.164;4.472;2023-05-18T10:18:25;13.24;52.42
66670;DHT22;53568;52.164;4.472;2023-05-18T10:20:53;13.43;52.58
66670;DHT22;53568;52.164;4.472;2023-05-18T10:23:20;13.46;50.74
66670;DHT22;53568;52.164;4.472;2023-05-18T10:25:48;13.37;51.19
66670;DHT22;53568;52.164;4.472;2023-05-18T10:28:46;12.62;52.32
66670;DHT22;53568;52.164;4.472;2023-05-18T10:31:15;12.49;53.25
66670;DHT22;53568;52.164;4.472;2023-05-18T10:33:43;12.70;52.27
66670;DHT22;53568;52.164;4.472;2023-05-18T10:36:11;12.70;52.06
66670;DHT22;53568;52.164;4.472;2023-05-18T10:38:37;12.89;51.68
66670;DHT22;53568;52.164;4.472;2023-05-18T10:41:08;13.21;50.97
66670;DHT22;53568;52.164;4.472;2023-05-18T10:43:36;13.11;51.14
66670;DHT22;53568;52.164;4.472;2023-05-18T10:46:04;12.89;52.28
66670;DHT22;53568;52.164;4.472;2023-05-18T10:48:37;13.11;51.82
66670;DHT22;53568;52.164;4.472;2023-05-18T10:51:03;12.76;52.22
66670;DHT22;53568;52.164;4.472;2023-05-18T10:53:31;13.04;50.74
66670;DHT22;53568;52.164;4.472;2023-05-18T10:55:58;13.33;49.99
66670;DHT22;53568;52.164;4.472;2023-05-18T10:58:26;13.26;50.35
66670;DHT22;53568;52.164;4.472;2023-05-18T11:01:00;13.24;50.80
66670;DHT22;53568;52.164;4.472;2023-05-18T11:03:27;13.39;51.26
66670;DHT22;53568;52.164;4.472;2023-05-18T11:08:32;13.28;50.32
66670;DHT22;53568;52.164;4.472;2023-05-18T11:11:07;12.77;52.35
66670;DHT22;53568;52.164;4.472;2023-05-18T11:13:34;12.41;53.84
66670;DHT22;53568;52.164;4.472;2023-05-18T11:16:04;12.66;53.74
66670;DHT22;53568;52.164;4.472;2023-05-18T11:26:55;13.57;50.02
66670;DHT22;53568;52.164;4.472;2023-05-18T11:31:54;13.51;50.38
66670;DHT22;53568;52.164;4.472;2023-05-18T11:34:43;13.88;50.58
66670;DHT22;53568;52.164;4.472;2023-05-18T11:37:14;13.95;49.42
66670;DHT22;53568;52.164;4.472;2023-05-18T11:39:40;13.61;50.86
66670;DHT22;53568;52.164;4.472;2023-05-18T11:42:10;13.89;50.47
66670;DHT22;53568;52.164;4.472;2023-05-18T11:44:37;14.09;49.09
66670;DHT22;53568;52.164;4.472;2023-05-18T11:47:09;13.74;49.29
66670;DHT22;53568;52.164;4.472;2023-05-18T11:49:42;13.71;49.14
66670;DHT22;53568;52.164;4.472;2023-05-18T11:55:19;13.79;49.97
66670;DHT22;53568;52.164;4.472;2023-05-18T12:00:04;14.28;49.02
66670;DHT22;53568;52.164;4.472;2023-05-18T12:02:33;14.38;50.10
66670;DHT22;53568;52.164;4.472;2023-05-18T12:05:01;14.62;48.58
66670;DHT22;53568;52.164;4.472;2023-05-18T12:07:28;14.58;48.08
66670;DHT22;53568;52.164;4.472;2023-05-18T12:10:00;13.70;50.71
66670;DHT22;53568;52.164;4.472;2023-05-18T12:12:27;13.94;50.37
66670;DHT22;53568;52.164;4.472;2023-05-18T12:17:20;13.84;50.01
66670;DHT22;53568;52.164;4.472;2023-05-18T12:19:47;14.05;50.17
66670;DHT22;53568;52.164;4.472;2023-05-18T12:22:14;14.31;50.12
66670;DHT22;53568;52.164;4.472;2023-05-18T12:24:41;14.49;49.29
66670;DHT22;53568;52.164;4.472;2023-05-18T12:27:09;14.38;49.57
66670;DHT22;53568;52.164;4.472;2023-05-18T12:29:41;14.65;49.46
66670;DHT22;53568;52.164;4.472;2023-05-18T12:32:08;14.49;49.37
66670;DHT22;53568;52.164;4.472;2023-05-18T12:34:35;14.61;48.81
66670;DHT22;53568;52.164;4.472;2023-05-18T12:37:01;14.87;48.14
66670;DHT22;53568;52.164;4.472;2023-05-18T12:39:27;14.89;50.12
66670;DHT22;53568;52.164;4.472;2023-05-18T12:41:53;15.11;48.38
66670;DHT22;53568;52.164;4.472;2023-05-18T12:44:32;15.00;48.03
66670;DHT22;53568;52.164;4.472;2023-05-18T12:46:57;15.16;47.84
66670;DHT22;53568;52.164;4.472;2023-05-18T12:49:23;15.43;46.88
66670;DHT22;53568;52.164;4.472;2023-05-18T12:51:54;15.26;46.20
66670;DHT22;53568;52.164;4.472;2023-05-18T12:54:27;14.82;47.37
66670;DHT22;53568;52.164;4.472;2023-05-18T12:56:54;14.80;47.36
66670;DHT22;53568;52.164;4.472;2023-05-18T12:59:25;14.63;48.20
66670;DHT22;53568;52.164;4.472;2023-05-18T13:01:54;14.65;48.30
66670;DHT22;53568;52.164;4.472;2023-05-18T13:04:21;14.77;48.31
66670;DHT22;53568;52.164;4.472;2023-05-18T13:06:47;14.95;47.93
66670;DHT22;53568;52.164;4.472;2023-05-18T13:09:14;15.10;47.08
66670;DHT22;53568;52.164;4.472;2023-05-18T13:11:40;14.92;47.88
66670;DHT22;53568;52.164;4.472;2023-05-18T13:14:10;14.24;49.02
66670;DHT22;53568;52.164;4.472;2023-05-18T13:16:43;14.31;49.28
66670;DHT22;53568;52.164;4.472;2023-05-18T13:19:10;14.26;48.71
66670;DHT22;53568;52.164;4.472;2023-05-18T13:21:40;14.15;50.02
66670;DHT22;53568;52.164;4.472;2023-05-18T13:24:05;14.38;47.84
66670;DHT22;53568;52.164;4.472;2023-05-18T13:26:31;14.55;47.63
66670;DHT22;53568;52.164;4.472;2023-05-18T13:28:57;14.35;49.12
66670;DHT22;53568;52.164;4.472;2023-05-18T13:31:22;14.42;49.06
66670;DHT22;53568;52.164;4.472;2023-05-18T13:33:49;14.25;48.99
66670;DHT22;53568;52.164;4.472;2023-05-18T13:36:16;14.28;50.18
66670;DHT22;53568;52.164;4.472;2023-05-18T13:38:42;14.51;48.54
66670;DHT22;53568;52.164;4.472;2023-05-18T13:41:11;13.88;49.66
66670;DHT22;53568;52.164;4.472;2023-05-18T13:43:39;13.70;50.34
66670;DHT22;53568;52.164;4.472;2023-05-18T13:46:06;14.07;50.23
66670;DHT22;53568;52.164;4.472;2023-05-18T13:48:32;14.21;50.15
66670;DHT22;53568;52.164;4.472;2023-05-18T13:50:57;14.53;49.51
66670;DHT22;53568;52.164;4.472;2023-05-18T13:53:25;14.79;48.23
66670;DHT22;53568;52.164;4.472;2023-05-18T13:55:50;14.92;47.82
66670;DHT22;53568;52.164;4.472;2023-05-18T13:58:16;14.80;48.52
66670;DHT22;53568;52.164;4.472;2023-05-18T14:00:42;14.72;48.49
66670;DHT22;53568;52.164;4.472;2023-05-18T14:03:11;14.85;48.26
66670;DHT22;53568;52.164;4.472;2023-05-18T14:05:36;15.02;48.26
66670;DHT22;53568;52.164;4.472;2023-05-18T14:08:02;15.08;47.25
66670;DHT22;53568;52.164;4.472;2023-05-18T14:10:28;14.87;48.90
66670;DHT22;53568;52.164;4.472;2023-05-18T14:12:53;14.61;48.17
66670;DHT22;53568;52.164;4.472;2023-05-18T14:15:19;14.46;49.11
66670;DHT22;53568;52.164;4.472;2023-05-18T14:17:44;14.24;49.53
66670;DHT22;53568;52.164;4.472;2023-05-18T14:20:11;14.25;50.47
66670;DHT22;53568;52.164;4.472;2023-05-18T14:22:37;14.69;49.21
66670;DHT22;53568;52.164;4.472;2023-05-18T14:25:03;14.56;48.61
66670;DHT22;53568;52.164;4.472;2023-05-18T14:27:29;14.33;48.77
66670;DHT22;53568;52.164;4.472;2023-05-18T14:29:55;14.38;49.73
66670;DHT22;53568;52.164;4.472;2023-05-18T14:32:20;14.85;47.75
66670;DHT22;53568;52.164;4.472;2023-05-18T14:34:47;14.80;47.97
66670;DHT22;53568;52.164;4.472;2023-05-18T14:37:16;14.58;49.14
66670;DHT22;53568;52.164;4.472;2023-05-18T14:39:41;14.82;49.22
66670;DHT22;53568;52.164;4.472;2023-05-18T14:42:07;15.24;48.86
66670;DHT22;53568;52.164;4.472;2023-05-18T14:44:32;15.53;46.20
66670;DHT22;53568;52.164;4.472;2023-05-18T14:46:58;15.46;46.51
66670;DHT22;53568;52.164;4.472;2023-05-18T14:49:23;15.30;47.64
66670;DHT22;53568;52.164;4.472;2023-05-18T14:51:49;15.28;47.35
66670;DHT22;53568;52.164;4.472;2023-05-18T14:54:14;14.87;48.10
66670;DHT22;53568;52.164;4.472;2023-05-18T14:56:40;14.80;49.34
66670;DHT22;53568;52.164;4.472;2023-05-18T14:59:06;15.08;49.51
66670;DHT22;53568;52.164;4.472;2023-05-18T15:01:31;15.28;48.45
66670;DHT22;53568;52.164;4.472;2023-05-18T15:03:57;15.26;47.90
66670;DHT22;53568;52.164;4.472;2023-05-18T15:06:27;14.93;48.81
66670;DHT22;53568;52.164;4.472;2023-05-18T15:08:52;14.76;49.48
66670;DHT22;53568;52.164;4.472;2023-05-18T15:11:18;14.77;49.83
66670;DHT22;53568;52.164;4.472;2023-05-18T15:13:44;14.96;49.61
66670;DHT22;53568;52.164;4.472;2023-05-18T15:16:10;15.08;49.08
66670;DHT22;53568;52.164;4.472;2023-05-18T15:18:36;15.22;49.54
66670;DHT22;53568;52.164;4.472;2023-05-18T15:21:01;14.99;49.45
66670;DHT22;53568;52.164;4.472;2023-05-18T15:23:26;14.85;50.26
66670;DHT22;53568;52.164;4.472;2023-05-18T15:25:52;15.02;51.16
66670;DHT22;53568;52.164;4.472;2023-05-18T15:28:18;14.87;50.38
66670;DHT22;53568;52.164;4.472;2023-05-18T15:30:43;15.17;49.98
66670;DHT22;53568;52.164;4.472;2023-05-18T15:33:09;15.40;49.18
66670;DHT22;53568;52.164;4.472;2023-05-18T15:35:34;15.62;48.29
66670;DHT22;53568;52.164;4.472;2023-05-18T15:38:01;16.00;47.05
66670;DHT22;53568;52.164;4.472;2023-05-18T15:40:26;16.04;47.42
66670;DHT22;53568;52.164;4.472;2023-05-18T15:42:52;15.92;46.78
66670;DHT22;53568;52.164;4.472;2023-05-18T15:45:18;15.88;46.78
66670;DHT22;53568;52.164;4.472;2023-05-18T15:47:43;15.77;47.56
66670;DHT22;53568;52.164;4.472;2023-05-18T15:50:09;16.01;47.92
66670;DHT22;53568;52.164;4.472;2023-05-18T15:52:35;15.94;46.41
66670;DHT22;53568;52.164;4.472;2023-05-18T15:55:00;15.88;46.75
66670;DHT22;53568;52.164;4.472;2023-05-18T15:57:26;15.82;47.28
66670;DHT22;53568;52.164;4.472;2023-05-18T15:59:51;16.18;46.49